This is the latest recevied weather packets stored in our database for station/object SR9WXP. If no packets are shown the sender has not sent any weather packets the latest 1 day(s).
| Time | Temp. | Humidity | Pressure | Rain* | Wind** | Luminosity | Snow |
|---|---|---|---|---|---|---|---|
| 1777985532 | 18.33° C | 46% | 851.6 hPa | - | 3.58 m/s, 185° | - | - |
| 1777985412 | 18.33° C | 46% | 851.4 hPa | - | 3.58 m/s, 187° | - | - |
| 1777985351 | 17.78° C | 46% | 851.3 hPa | - | 4.02 m/s, 189° | - | - |
| 1777985292 | 17.78° C | 47% | 851.3 hPa | - | 4.47 m/s, 189° | - | - |
| 1777985048 | 16.67° C | 47% | 851.5 hPa | - | 2.24 m/s, 170° | - | - |
| 1777984930 | 16.67° C | 47% | 851.5 hPa | - | 3.13 m/s, 174° | - | - |
| 1777984809 | 16.11° C | 47% | 851.5 hPa | - | 3.58 m/s, 174° | - | - |
| 1777984748 | 16.11° C | 47% | 851.4 hPa | - | 4.02 m/s, 179° | - | - |
| 1777984689 | 16.11° C | 47% | 851.5 hPa | - | 4.02 m/s, 178° | - | - |
| 1777984569 | 16.11° C | 47% | 851.7 hPa | - | 3.58 m/s, 172° | - | - |
| 1777984431 | 15.56° C | 47% | 851.9 hPa | - | 3.58 m/s, 177° | - | - |
| 1777984313 | 15.56° C | 47% | 852 hPa | - | 3.58 m/s, 177° | - | - |
| 1777984193 | 15.56° C | 47% | 852 hPa | - | 3.58 m/s, 178° | - | - |
| 1777984131 | 15.56° C | 47% | 852 hPa | - | 3.58 m/s, 175° | - | - |
| 1777984073 | 16.11° C | 47% | 852.1 hPa | - | 3.58 m/s, 172° | - | - |
| 1777983953 | 16.11° C | 47% | 852.1 hPa | - | 3.13 m/s, 167° | - | - |
| 1777983828 | 16.11° C | 47% | 852.1 hPa | - | 3.13 m/s, 172° | - | - |
| 1777983711 | 16.11° C | 47% | 852 hPa | - | 4.02 m/s, 178° | - | - |
| 1777983590 | 16.11° C | 47% | 852 hPa | - | 3.58 m/s, 178° | - | - |
| 1777983528 | 16.11° C | 47% | 852 hPa | - | 3.13 m/s, 176° | - | - |
| 1777983469 | 16.11° C | 47% | 852 hPa | - | 3.58 m/s, 178° | - | - |
| 1777983350 | 16.11° C | 47% | 852 hPa | - | 3.58 m/s, 173° | - | - |
| 1777983225 | 15.56° C | 47% | 852.1 hPa | - | 3.58 m/s, 176° | - | - |
| 1777983107 | 15.56° C | 47% | 852.2 hPa | - | 3.58 m/s, 185° | - | - |
| 1777982987 | 15.56° C | 47% | 852.2 hPa | - | 3.58 m/s, 187° | - | - |
* Rain since midnight (hover to see other rain measurements)
** Current wind speed in m/s (hover to see current wind gust speed)